Time;durP1;ratioP1;P1;durP2;ratioP2;P2;SDS_P1;SDS_P2;PMS_P1;PMS_P2;Temp;Humidity;BMP_temperature;BMP_pressure;BME280_temperature;BME280_humidity;BME280_pressure;Samples;Min_cycle;Max_cycle;Signal;HPM_P1;HPM_P2
2022/09/12 00:00:48;;;;;;;;;;;29.90;90.70;;;;;;5025440;28;19936;-59
2022/09/12 00:03:14;;;;;;;;;;;29.80;90.70;;;;;;5025315;28;19925;-59
2022/09/12 00:05:49;;;;;;;;;;;29.80;90.70;;;;;;5023983;28;19960;-60
2022/09/12 00:08:18;;;;;;;;;;;29.80;90.70;;;;;;5023685;28;19913;-57
2022/09/12 00:10:44;;;;;;;;;;;29.80;90.60;;;;;;5025271;28;19914;-58
2022/09/12 00:13:13;;;;;;;;;;;29.80;90.60;;;;;;5025127;28;19906;-54
2022/09/12 00:15:43;;;;;;;;;;;29.80;90.60;;;;;;5025094;28;20212;-56
2022/09/12 00:18:17;;;;;;;;;;;29.80;90.50;;;;;;5024825;28;19920;-55
2022/09/12 00:20:44;;;;;;;;;;;29.70;90.30;;;;;;5023788;28;20215;-58
2022/09/12 00:23:13;;;;;;;;;;;29.70;90.30;;;;;;5025042;28;19940;-58
2022/09/12 00:25:48;;;;;;;;;;;29.70;90.20;;;;;;5007501;28;20105;-56
2022/09/12 00:28:26;;;;;;;;;;;;;;;;;;;;;
2022/09/12 00:30:56;;;;;;;;;;;29.70;90.20;;;;;;5025027;28;19970;-57
2022/09/12 00:33:25;;;;;;;;;;;29.70;90.10;;;;;;5024460;28;19905;-54
2022/09/12 00:35:51;;;;;;;;;;;29.70;90.20;;;;;;5025022;28;20075;-55
2022/09/12 00:38:21;;;;;;;;;;;29.70;90.10;;;;;;5024322;28;19937;-55
2022/09/12 00:41:17;;;;;;;;;;;29.70;90.00;;;;;;5008969;28;20079;-58
2022/09/12 00:43:51;;;;;;;;;;;29.60;90.00;;;;;;5006499;28;20229;-57
2022/09/12 00:46:26;;;;;;;;;;;29.60;90.00;;;;;;5005947;28;19921;-60
2022/09/12 00:49:34;;;;;;;;;;;29.60;90.00;;;;;;5022553;28;19910;-58
2022/09/12 00:52:00;;;;;;;;;;;29.60;90.00;;;;;;5022537;28;19948;-56
2022/09/12 00:54:31;;;;;;;;;;;29.60;90.00;;;;;;5022608;28;20152;-57
2022/09/12 00:57:01;;;;;;;;;;;29.60;90.10;;;;;;5022372;28;19953;-55
2022/09/12 00:59:34;;;;;;;;;;;29.50;89.90;;;;;;5021234;28;19909;-56
2022/09/12 01:02:04;;;;;;;;;;;29.50;89.90;;;;;;5022400;28;19929;-58
2022/09/12 01:04:31;;;;;;;;;;;29.50;89.90;;;;;;5022396;28;20109;-56
2022/09/12 01:06:59;;;;;;;;;;;29.50;89.90;;;;;;5024358;28;19944;-57
2022/09/12 01:09:25;;;;;;;;;;;29.50;89.70;;;;;;5009787;28;19910;-56
2022/09/12 01:11:52;;;;;;;;;;;29.50;89.80;;;;;;5026989;28;19992;-58
2022/09/12 01:14:26;;;;;;;;;;;29.40;89.60;;;;;;5023959;28;19948;-55
2022/09/12 01:16:52;;;;;;;;;;;29.40;89.80;;;;;;5021216;28;19910;-50
2022/09/12 01:19:38;;;;;;;;;;;29.30;90.00;;;;;;5023730;28;19989;-59
2022/09/12 01:22:07;;;;;;;;;;;29.20;90.00;;;;;;5023338;28;19918;-56
2022/09/12 01:24:53;;;;;;;;;;;29.10;90.20;;;;;;5026360;28;19920;-55
2022/09/12 01:27:22;;;;;;;;;;;29.10;90.20;;;;;;5026624;28;19948;-54
2022/09/12 01:29:58;;;;;;;;;;;29.10;90.20;;;;;;5026942;28;20125;-51
2022/09/12 01:32:24;;;;;;;;;;;29.00;90.20;;;;;;5025485;28;19914;-56
2022/09/12 01:34:58;;;;;;;;;;;29.00;90.20;;;;;;5026552;28;19910;-53
2022/09/12 01:37:40;;;;;;;;;;;29.00;90.30;;;;;;5028402;28;19913;-58
2022/09/12 01:40:15;;;;;;;;;;;29.00;90.30;;;;;;5028120;28;20097;-56
2022/09/12 01:42:50;;;;;;;;;;;29.00;90.30;;;;;;5028376;28;20182;-51
2022/09/12 01:45:17;;;;;;;;;;;29.00;90.30;;;;;;5026730;28;19909;-52
2022/09/12 01:47:50;;;;;;;;;;;28.90;90.30;;;;;;5027976;28;19914;-52
2022/09/12 01:50:35;;;;;;;;;;;29.00;90.20;;;;;;5027282;28;19906;-57
2022/09/12 01:53:03;;;;;;;;;;;28.90;90.30;;;;;;5026576;28;19914;-51
2022/09/12 01:55:39;;;;;;;;;;;28.90;90.10;;;;;;5026121;28;19924;-56
2022/09/12 01:58:06;;;;;;;;;;;28.90;90.20;;;;;;5042674;28;19914;-53
2022/09/12 02:00:36;;;;;;;;;;;28.80;90.10;;;;;;5027232;28;19917;-57
2022/09/12 02:03:14;;;;;;;;;;;28.80;90.20;;;;;;5024062;28;19917;-52
2022/09/12 02:05:44;;;;;;;;;;;28.80;90.30;;;;;;5009817;28;19949;-54
2022/09/12 02:08:16;;;;;;;;;;;28.80;90.20;;;;;;5020351;28;20129;-55
2022/09/12 02:10:58;;;;;;;;;;;28.70;90.20;;;;;;5019446;28;19916;-57
2022/09/12 02:13:43;;;;;;;;;;;28.70;90.30;;;;;;5020689;28;20252;-55
2022/09/12 02:16:15;;;;;;;;;;;28.70;90.20;;;;;;5012447;28;19914;-55
2022/09/12 02:18:50;;;;;;;;;;;28.70;90.10;;;;;;5014957;28;19952;-52
2022/09/12 02:21:18;;;;;;;;;;;28.70;90.20;;;;;;5016700;28;20186;-61
2022/09/12 02:23:48;;;;;;;;;;;28.70;90.20;;;;;;5024537;28;19931;-54
2022/09/12 02:26:22;;;;;;;;;;;28.70;90.40;;;;;;5019328;28;19917;-52
2022/09/12 02:28:49;;;;;;;;;;;28.60;90.20;;;;;;5021725;28;19906;-62
2022/09/12 02:31:19;;;;;;;;;;;28.70;90.20;;;;;;5027180;28;19909;-62
2022/09/12 02:33:45;;;;;;;;;;;28.70;90.20;;;;;;5027039;28;19916;-60
2022/09/12 02:36:22;;;;;;;;;;;28.80;90.20;;;;;;5024054;28;19989;-59
2022/09/12 02:38:49;;;;;;;;;;;28.80;90.30;;;;;;5020506;28;19957;-60
2022/09/12 02:41:17;;;;;;;;;;;28.80;90.20;;;;;;5015793;28;19906;-59
2022/09/12 02:43:44;;;;;;;;;;;28.80;90.20;;;;;;5007251;28;19953;-59
2022/09/12 02:46:14;;;;;;;;;;;28.90;90.20;;;;;;5016880;28;19915;-60
2022/09/12 02:48:42;;;;;;;;;;;28.80;90.20;;;;;;5026754;28;19913;-60
2022/09/12 02:51:10;;;;;;;;;;;28.90;90.20;;;;;;5026345;28;19909;-60
2022/09/12 02:53:38;;;;;;;;;;;28.90;90.20;;;;;;5026449;28;20193;-60
2022/09/12 02:56:13;;;;;;;;;;;28.90;90.20;;;;;;5026194;28;19913;-60
2022/09/12 02:58:40;;;;;;;;;;;28.90;90.20;;;;;;5023630;28;20216;-60
2022/09/12 03:01:18;;;;;;;;;;;28.90;90.30;;;;;;5016634;28;20209;-61
2022/09/12 03:03:44;;;;;;;;;;;28.90;90.40;;;;;;5021865;28;19960;-60
2022/09/12 03:06:28;;;;;;;;;;;28.90;90.50;;;;;;5025917;28;19940;-61
2022/09/12 03:08:59;;;;;;;;;;;28.90;90.50;;;;;;5019833;28;19948;-60
2022/09/12 03:11:37;;;;;;;;;;;28.90;90.50;;;;;;5016437;28;19910;-59
2022/09/12 03:14:06;;;;;;;;;;;28.90;90.30;;;;;;5006602;28;19964;-60
2022/09/12 03:16:33;;;;;;;;;;;28.90;90.60;;;;;;5006298;28;19945;-60
2022/09/12 03:19:11;;;;;;;;;;;28.90;90.80;;;;;;5011526;28;19922;-59
2022/09/12 03:22:02;;;;;;;;;;;28.90;90.80;;;;;;5019346;28;19924;-60
2022/09/12 03:24:32;;;;;;;;;;;28.90;90.90;;;;;;5015721;28;19964;-59
2022/09/12 03:27:09;;;;;;;;;;;28.90;91.00;;;;;;5024833;28;19910;-60
2022/09/12 03:29:36;;;;;;;;;;;28.90;90.90;;;;;;5025310;28;19913;-58
2022/09/12 03:32:02;;;;;;;;;;;28.90;90.90;;;;;;5024745;28;19910;-61
2022/09/12 03:34:28;;;;;;;;;;;28.90;91.00;;;;;;5025811;28;19956;-59
2022/09/12 03:36:57;;;;;;;;;;;28.90;91.00;;;;;;5025425;28;20209;-60
2022/09/12 03:39:23;;;;;;;;;;;28.90;91.20;;;;;;5025840;28;19960;-60
2022/09/12 03:41:50;;;;;;;;;;;28.90;91.20;;;;;;5025379;28;19909;-62
2022/09/12 03:44:16;;;;;;;;;;;28.90;91.10;;;;;;5025616;28;19921;-60
2022/09/12 03:46:42;;;;;;;;;;;28.90;91.20;;;;;;5024320;28;19940;-61
2022/09/12 03:49:09;;;;;;;;;;;28.90;91.40;;;;;;5013317;28;19914;-60
2022/09/12 03:51:38;;;;;;;;;;;28.90;91.50;;;;;;5026119;28;19909;-60
2022/09/12 03:54:04;;;;;;;;;;;28.90;91.60;;;;;;5026432;28;20295;-60
2022/09/12 03:56:30;;;;;;;;;;;28.90;91.60;;;;;;5025085;28;19936;-60
2022/09/12 03:58:57;;;;;;;;;;;28.90;91.60;;;;;;5025226;28;19936;-61
2022/09/12 04:01:23;;;;;;;;;;;28.90;91.60;;;;;;5025161;28;19905;-60
2022/09/12 04:03:50;;;;;;;;;;;28.90;91.70;;;;;;5024789;28;19952;-59
2022/09/12 04:06:17;;;;;;;;;;;28.90;91.70;;;;;;5024458;28;19917;-60
2022/09/12 04:08:47;;;;;;;;;;;28.90;91.60;;;;;;5025334;28;20138;-60
2022/09/12 04:11:13;;;;;;;;;;;28.80;91.50;;;;;;5024981;28;20000;-60
2022/09/12 04:13:41;;;;;;;;;;;28.90;91.50;;;;;;5024965;28;19914;-63
2022/09/12 04:16:07;;;;;;;;;;;28.90;91.40;;;;;;5024874;28;19909;-61
2022/09/12 04:18:33;;;;;;;;;;;28.80;91.30;;;;;;5025255;28;19913;-60
2022/09/12 04:21:04;;;;;;;;;;;28.80;91.40;;;;;;5024673;28;19932;-60
2022/09/12 04:23:30;;;;;;;;;;;28.80;91.30;;;;;;5024980;28;19910;-58
2022/09/12 04:25:58;;;;;;;;;;;28.80;91.30;;;;;;5024683;28;19913;-60
2022/09/12 04:28:25;;;;;;;;;;;28.80;91.30;;;;;;5024833;28;19920;-60
2022/09/12 04:30:51;;;;;;;;;;;28.80;91.40;;;;;;5025407;28;19928;-60
2022/09/12 04:33:17;;;;;;;;;;;28.80;91.30;;;;;;5024846;28;20177;-60
2022/09/12 04:35:44;;;;;;;;;;;28.80;91.40;;;;;;5024495;28;19909;-59
2022/09/12 04:38:10;;;;;;;;;;;28.80;91.50;;;;;;5024617;28;19909;-60
2022/09/12 04:40:37;;;;;;;;;;;28.80;91.50;;;;;;5024696;28;19980;-59
2022/09/12 04:43:03;;;;;;;;;;;28.70;91.50;;;;;;5024431;28;19909;-60
2022/09/12 04:45:29;;;;;;;;;;;28.70;91.50;;;;;;5024418;28;20113;-59
2022/09/12 04:47:56;;;;;;;;;;;28.70;91.50;;;;;;5024470;28;19933;-61
2022/09/12 04:50:22;;;;;;;;;;;28.70;91.50;;;;;;5024442;28;19910;-61
2022/09/12 04:52:51;;;;;;;;;;;28.70;91.50;;;;;;5024394;28;19912;-61
2022/09/12 04:55:17;;;;;;;;;;;28.70;91.70;;;;;;5024347;28;19909;-64
2022/09/12 04:57:44;;;;;;;;;;;28.70;91.80;;;;;;5024290;28;19913;-62
2022/09/12 05:00:13;;;;;;;;;;;28.70;91.80;;;;;;5025073;28;19981;-60
2022/09/12 05:02:40;;;;;;;;;;;28.70;91.90;;;;;;5024442;28;20213;-60
2022/09/12 05:05:06;;;;;;;;;;;28.60;91.80;;;;;;5024716;28;19927;-59
2022/09/12 05:07:32;;;;;;;;;;;28.60;91.90;;;;;;5024428;28;19910;-61
2022/09/12 05:09:59;;;;;;;;;;;28.60;91.90;;;;;;5024791;28;19956;-61
2022/09/12 05:12:25;;;;;;;;;;;28.60;91.90;;;;;;5024221;28;19912;-59
2022/09/12 05:14:51;;;;;;;;;;;28.60;92.10;;;;;;5024654;28;19976;-59
2022/09/12 05:17:17;;;;;;;;;;;28.60;92.00;;;;;;5024486;28;19909;-60
2022/09/12 05:19:44;;;;;;;;;;;28.60;92.00;;;;;;5024522;28;19941;-60
2022/09/12 05:22:10;;;;;;;;;;;28.60;92.00;;;;;;5024173;28;19909;-61
2022/09/12 05:24:38;;;;;;;;;;;28.60;92.00;;;;;;5024346;28;20108;-60
2022/09/12 05:27:04;;;;;;;;;;;28.60;92.00;;;;;;5024004;28;19909;-59
2022/09/12 05:29:30;;;;;;;;;;;28.60;92.10;;;;;;5024439;28;19921;-60
2022/09/12 05:31:58;;;;;;;;;;;28.60;92.10;;;;;;5024225;28;19912;-61
2022/09/12 05:34:24;;;;;;;;;;;28.60;92.20;;;;;;5023505;28;19913;-60
2022/09/12 05:36:51;;;;;;;;;;;28.50;92.20;;;;;;5023995;28;19932;-60
2022/09/12 05:39:17;;;;;;;;;;;28.50;92.20;;;;;;5024363;28;19917;-60
2022/09/12 05:41:44;;;;;;;;;;;28.50;92.30;;;;;;5024057;28;20233;-61
2022/09/12 05:44:11;;;;;;;;;;;28.50;92.30;;;;;;5024145;28;19933;-61
2022/09/12 05:46:39;;;;;;;;;;;28.50;92.30;;;;;;5023869;28;19913;-60
2022/09/12 05:49:06;;;;;;;;;;;28.50;92.40;;;;;;5024234;28;19914;-61
2022/09/12 05:51:33;;;;;;;;;;;28.50;92.40;;;;;;5023872;28;19917;-60
2022/09/12 05:54:00;;;;;;;;;;;28.50;92.40;;;;;;5027412;28;19980;-60
2022/09/12 05:56:27;;;;;;;;;;;28.50;92.40;;;;;;5027327;28;19913;-60
2022/09/12 05:58:55;;;;;;;;;;;28.50;92.40;;;;;;5027489;28;19917;-60
2022/09/12 06:01:21;;;;;;;;;;;28.50;92.40;;;;;;5027372;28;19906;-60
2022/09/12 06:03:49;;;;;;;;;;;28.50;92.40;;;;;;5027482;28;20100;-60
2022/09/12 06:06:17;;;;;;;;;;;28.50;92.50;;;;;;5027058;28;20224;-60
2022/09/12 06:08:45;;;;;;;;;;;28.50;92.40;;;;;;5027384;28;19980;-62
2022/09/12 06:11:13;;;;;;;;;;;28.40;92.40;;;;;;5027176;28;20197;-59
2022/09/12 06:13:41;;;;;;;;;;;28.40;92.50;;;;;;5027179;28;19976;-60
2022/09/12 06:16:26;;;;;;;;;;;28.40;92.40;;;;;;5027075;28;19932;-61
2022/09/12 06:18:54;;;;;;;;;;;28.40;92.50;;;;;;5027101;28;19913;-61
2022/09/12 06:21:21;;;;;;;;;;;28.40;92.40;;;;;;5026961;28;19913;-60
2022/09/12 06:23:48;;;;;;;;;;;28.40;92.40;;;;;;5027129;28;19913;-61
2022/09/12 06:26:15;;;;;;;;;;;28.40;92.40;;;;;;5026661;28;19934;-60
2022/09/12 06:28:43;;;;;;;;;;;28.40;92.40;;;;;;5026940;28;20228;-60
2022/09/12 06:31:14;;;;;;;;;;;28.40;92.30;;;;;;5026808;28;19960;-61
2022/09/12 06:33:41;;;;;;;;;;;28.40;92.30;;;;;;5026814;28;19920;-62
2022/09/12 06:36:09;;;;;;;;;;;28.40;92.50;;;;;;5026659;28;19928;-61
2022/09/12 06:38:35;;;;;;;;;;;28.30;92.30;;;;;;5026802;28;19913;-61
2022/09/12 06:41:10;;;;;;;;;;;28.30;92.30;;;;;;5026532;28;19910;-60
2022/09/12 06:43:36;;;;;;;;;;;28.30;92.20;;;;;;5026817;28;19975;-60
2022/09/12 06:46:03;;;;;;;;;;;28.30;92.20;;;;;;5026303;28;19920;-60
2022/09/12 06:48:29;;;;;;;;;;;28.30;92.20;;;;;;5026644;28;20093;-60
2022/09/12 06:51:08;;;;;;;;;;;28.30;92.20;;;;;;5026492;28;19905;-60
2022/09/12 06:53:38;;;;;;;;;;;28.30;92.20;;;;;;5026335;28;19914;-60
2022/09/12 06:56:09;;;;;;;;;;;28.20;92.20;;;;;;5026224;28;19913;-62
2022/09/12 06:58:36;;;;;;;;;;;28.20;92.20;;;;;;5026446;28;19952;-61
2022/09/12 07:01:06;;;;;;;;;;;28.20;92.20;;;;;;5026237;28;19977;-61
2022/09/12 07:03:33;;;;;;;;;;;28.20;92.20;;;;;;5026318;28;20121;-61
2022/09/12 07:06:03;;;;;;;;;;;28.20;92.30;;;;;;5026056;28;20117;-60
2022/09/12 07:08:30;;;;;;;;;;;28.20;92.30;;;;;;5026217;28;20189;-60
2022/09/12 07:10:57;;;;;;;;;;;28.20;92.30;;;;;;5026051;28;20047;-60
2022/09/12 07:13:24;;;;;;;;;;;28.10;92.20;;;;;;5025963;28;19928;-60
2022/09/12 07:15:50;;;;;;;;;;;28.10;92.30;;;;;;5025952;28;19906;-60
2022/09/12 07:18:16;;;;;;;;;;;28.10;92.30;;;;;;5025958;28;19913;-61
2022/09/12 07:20:43;;;;;;;;;;;28.10;92.30;;;;;;5026112;28;19937;-60
2022/09/12 07:23:10;;;;;;;;;;;28.10;92.40;;;;;;5025783;28;19957;-60
2022/09/12 07:25:36;;;;;;;;;;;28.10;92.30;;;;;;5025838;28;19913;-60
2022/09/12 07:28:02;;;;;;;;;;;28.10;92.30;;;;;;5025716;28;19906;-60
2022/09/12 07:30:28;;;;;;;;;;;28.10;92.30;;;;;;5025561;28;19980;-62
2022/09/12 07:32:54;;;;;;;;;;;28.10;92.40;;;;;;5025612;28;20231;-60
2022/09/12 07:35:21;;;;;;;;;;;28.00;92.40;;;;;;5025558;28;19909;-60
2022/09/12 07:37:47;;;;;;;;;;;28.00;92.30;;;;;;5025334;28;20101;-60
2022/09/12 07:40:13;;;;;;;;;;;28.00;92.30;;;;;;5025607;28;19937;-61
2022/09/12 07:42:39;;;;;;;;;;;28.00;92.30;;;;;;5025578;28;19909;-60
2022/09/12 07:45:06;;;;;;;;;;;28.00;92.30;;;;;;5025708;28;19913;-64
2022/09/12 07:47:32;;;;;;;;;;;28.00;92.40;;;;;;5025424;28;19980;-60
2022/09/12 07:49:59;;;;;;;;;;;28.00;92.40;;;;;;5025046;28;19945;-61
2022/09/12 07:52:25;;;;;;;;;;;28.00;92.40;;;;;;5025168;28;20201;-60
2022/09/12 07:54:51;;;;;;;;;;;28.00;92.40;;;;;;5025731;28;20231;-60
2022/09/12 07:57:17;;;;;;;;;;;28.00;92.40;;;;;;5025115;28;19920;-60
2022/09/12 07:59:43;;;;;;;;;;;28.00;92.40;;;;;;5025570;28;20129;-61
2022/09/12 08:02:15;;;;;;;;;;;28.00;92.40;;;;;;5025184;28;19916;-60
2022/09/12 08:04:41;;;;;;;;;;;27.90;92.40;;;;;;5025544;28;20110;-61
2022/09/12 08:07:08;;;;;;;;;;;27.90;92.50;;;;;;5024895;28;19910;-60
2022/09/12 08:09:34;;;;;;;;;;;27.90;92.50;;;;;;5025549;28;19949;-61
2022/09/12 08:12:01;;;;;;;;;;;27.90;92.50;;;;;;5024993;28;20098;-60
2022/09/12 08:14:27;;;;;;;;;;;27.90;92.50;;;;;;5025066;28;19988;-60
2022/09/12 08:16:53;;;;;;;;;;;27.90;92.60;;;;;;5024614;28;19909;-60
2022/09/12 08:19:21;;;;;;;;;;;27.80;92.60;;;;;;5025192;28;19909;-60
2022/09/12 08:21:47;;;;;;;;;;;27.80;92.60;;;;;;5024988;28;20208;-62
2022/09/12 08:24:14;;;;;;;;;;;27.80;92.60;;;;;;5025154;28;19922;-61
2022/09/12 08:26:40;;;;;;;;;;;27.80;92.60;;;;;;5024801;28;19920;-60
2022/09/12 08:29:06;;;;;;;;;;;27.80;92.60;;;;;;5025035;28;19980;-61
2022/09/12 08:31:35;;;;;;;;;;;27.80;92.70;;;;;;5024927;28;19905;-60
2022/09/12 08:34:02;;;;;;;;;;;27.80;92.70;;;;;;5024877;28;19914;-60
2022/09/12 08:36:28;;;;;;;;;;;27.80;92.70;;;;;;5024662;28;19906;-60
2022/09/12 08:38:59;;;;;;;;;;;27.70;92.60;;;;;;5024844;28;20105;-61
2022/09/12 08:41:33;;;;;;;;;;;27.70;92.60;;;;;;5024584;28;20128;-60
2022/09/12 08:44:14;;;;;;;;;;;27.70;92.60;;;;;;5024629;28;20193;-60
2022/09/12 08:46:46;;;;;;;;;;;27.80;92.70;;;;;;5024567;28;19940;-59
2022/09/12 08:49:14;;;;;;;;;;;27.80;92.70;;;;;;5024676;28;19920;-60
2022/09/12 08:51:40;;;;;;;;;;;27.70;92.80;;;;;;5024619;28;19973;-61
2022/09/12 08:54:18;;;;;;;;;;;27.70;92.80;;;;;;5024655;28;19925;-60
2022/09/12 08:56:45;;;;;;;;;;;27.70;92.80;;;;;;5024301;28;19914;-59
2022/09/12 08:59:12;;;;;;;;;;;27.70;92.90;;;;;;5024727;28;19914;-60
2022/09/12 09:01:44;;;;;;;;;;;27.70;92.90;;;;;;5024287;28;20189;-61
2022/09/12 09:04:29;;;;;;;;;;;27.70;93.00;;;;;;5024531;28;19916;-61
2022/09/12 09:06:55;;;;;;;;;;;27.60;93.00;;;;;;5024347;28;19956;-60
2022/09/12 09:09:58;;;;;;;;;;;27.60;93.00;;;;;;5023751;28;19920;-61
2022/09/12 09:12:44;;;;;;;;;;;27.60;93.10;;;;;;4983199;28;19910;-60
2022/09/12 09:15:28;;;;;;;;;;;27.60;93.10;;;;;;5021726;28;19973;-61
2022/09/12 09:18:00;;;;;;;;;;;27.60;93.10;;;;;;5024227;28;19940;-61
2022/09/12 09:20:30;;;;;;;;;;;27.50;93.00;;;;;;5024187;28;20037;-60
2022/09/12 09:22:56;;;;;;;;;;;27.50;92.90;;;;;;5024018;28;19977;-61
2022/09/12 09:25:34;;;;;;;;;;;27.50;92.90;;;;;;5024328;28;19914;-61
2022/09/12 09:28:06;;;;;;;;;;;27.50;92.90;;;;;;5026002;28;19915;-61
2022/09/12 09:30:34;;;;;;;;;;;27.50;92.90;;;;;;5027997;28;19976;-60
2022/09/12 09:33:02;;;;;;;;;;;27.50;92.90;;;;;;5027878;28;19940;-61
2022/09/12 09:35:31;;;;;;;;;;;27.50;92.90;;;;;;5027800;28;19916;-60
2022/09/12 09:38:13;;;;;;;;;;;27.50;92.90;;;;;;5027828;28;19909;-60
2022/09/12 09:40:52;;;;;;;;;;;27.50;92.80;;;;;;5028023;28;19944;-61
2022/09/12 09:43:22;;;;;;;;;;;27.40;92.80;;;;;;5027760;28;19917;-60
2022/09/12 09:45:49;;;;;;;;;;;27.40;93.00;;;;;;5027512;28;19952;-60
2022/09/12 09:48:18;;;;;;;;;;;27.40;92.70;;;;;;5027458;28;20197;-61
2022/09/12 09:50:45;;;;;;;;;;;27.40;92.80;;;;;;5027536;28;20117;-60
2022/09/12 09:53:20;;;;;;;;;;;27.40;92.70;;;;;;5027570;28;19922;-60
2022/09/12 09:55:48;;;;;;;;;;;27.40;92.70;;;;;;5027262;28;19917;-60
2022/09/12 09:58:27;;;;;;;;;;;27.40;92.80;;;;;;5027306;28;19920;-60
2022/09/12 10:00:57;;;;;;;;;;;27.40;92.80;;;;;;5027210;28;19917;-60
2022/09/12 10:03:27;;;;;;;;;;;27.40;92.90;;;;;;5027394;28;19948;-63
2022/09/12 10:05:56;;;;;;;;;;;27.30;93.00;;;;;;5027156;28;20181;-62
2022/09/12 10:08:26;;;;;;;;;;;27.30;93.00;;;;;;5027208;28;19914;-60
2022/09/12 10:10:53;;;;;;;;;;;27.30;93.00;;;;;;5027162;28;19909;-60
2022/09/12 10:13:24;;;;;;;;;;;27.30;93.00;;;;;;5027176;28;20136;-60
2022/09/12 10:15:57;;;;;;;;;;;27.40;93.10;;;;;;5027072;28;19909;-61
2022/09/12 10:18:41;;;;;;;;;;;27.30;93.10;;;;;;5027111;28;19913;-61
2022/09/12 10:21:17;;;;;;;;;;;27.30;93.10;;;;;;5027319;28;19910;-60
2022/09/12 10:23:45;;;;;;;;;;;27.30;93.10;;;;;;5027252;28;19913;-64
2022/09/12 10:26:14;;;;;;;;;;;27.30;93.10;;;;;;5026769;28;19953;-60
2022/09/12 10:28:54;;;;;;;;;;;27.30;93.20;;;;;;5027032;28;19910;-60
2022/09/12 10:31:28;;;;;;;;;;;27.30;93.10;;;;;;5025463;28;19909;-61
2022/09/12 10:33:58;;;;;;;;;;;27.30;93.10;;;;;;5025691;28;19981;-61
2022/09/12 10:36:25;;;;;;;;;;;27.30;93.00;;;;;;5026381;28;19909;-59
2022/09/12 10:38:52;;;;;;;;;;;27.30;93.00;;;;;;5026378;28;19913;-60
2022/09/12 10:41:20;;;;;;;;;;;27.30;93.00;;;;;;5026770;28;20124;-59
2022/09/12 10:43:47;;;;;;;;;;;27.20;93.00;;;;;;5026551;28;19921;-60
2022/09/12 10:46:18;;;;;;;;;;;27.20;92.90;;;;;;5026280;28;19921;-60
2022/09/12 10:48:45;;;;;;;;;;;27.30;93.00;;;;;;5026743;28;19917;-59
2022/09/12 10:51:23;;;;;;;;;;;27.20;92.90;;;;;;5026320;28;20100;-60
2022/09/12 10:53:50;;;;;;;;;;;27.30;92.90;;;;;;5026998;28;20071;-60
2022/09/12 10:56:21;;;;;;;;;;;27.30;93.00;;;;;;5025325;28;20028;-60
2022/09/12 10:58:50;;;;;;;;;;;27.20;92.90;;;;;;5026710;28;19913;-61
2022/09/12 11:01:20;;;;;;;;;;;27.20;92.90;;;;;;5026452;28;20008;-60
2022/09/12 11:03:49;;;;;;;;;;;27.30;92.90;;;;;;5026148;28;19914;-61
2022/09/12 11:06:19;;;;;;;;;;;27.20;92.90;;;;;;5025893;28;20114;-60
2022/09/12 11:08:45;;;;;;;;;;;27.20;92.80;;;;;;5026408;28;20185;-60
2022/09/12 11:11:30;;;;;;;;;;;27.20;92.80;;;;;;5025970;28;20228;-60
2022/09/12 11:14:03;;;;;;;;;;;27.20;92.90;;;;;;5026140;28;20243;-61
2022/09/12 11:16:39;;;;;;;;;;;27.20;92.70;;;;;;5025862;28;20193;-62
2022/09/12 11:19:13;;;;;;;;;;;27.20;92.70;;;;;;5025862;28;19985;-60
2022/09/12 11:22:06;;;;;;;;;;;27.20;92.70;;;;;;5025922;28;19910;-61
2022/09/12 11:24:32;;;;;;;;;;;27.20;92.70;;;;;;5009688;28;19936;-62
2022/09/12 11:27:01;;;;;;;;;;;27.20;92.70;;;;;;5024636;28;19909;-59
2022/09/12 11:29:40;;;;;;;;;;;27.20;92.60;;;;;;5025625;28;20220;-59
2022/09/12 11:32:06;;;;;;;;;;;27.20;92.60;;;;;;5025263;28;19914;-61
2022/09/12 11:34:41;;;;;;;;;;;27.30;92.70;;;;;;5018244;28;19917;-62
2022/09/12 11:37:26;;;;;;;;;;;27.30;92.70;;;;;;5018848;28;19992;-61
2022/09/12 11:39:53;;;;;;;;;;;27.20;92.70;;;;;;5022037;28;19913;-63
2022/09/12 11:42:31;;;;;;;;;;;27.30;92.70;;;;;;5024306;28;19910;-59
2022/09/12 11:45:07;;;;;;;;;;;27.30;92.70;;;;;;5023310;28;19972;-60
2022/09/12 11:47:43;;;;;;;;;;;27.20;92.70;;;;;;5020596;28;19941;-60
2022/09/12 11:50:20;;;;;;;;;;;27.30;92.70;;;;;;5013360;28;20193;-60
2022/09/12 11:52:50;;;;;;;;;;;27.30;92.90;;;;;;5021777;28;19957;-61
2022/09/12 11:55:16;;;;;;;;;;;27.30;92.90;;;;;;5025148;28;19921;-60
2022/09/12 11:57:44;;;;;;;;;;;27.30;93.00;;;;;;5024528;28;19913;-60
2022/09/12 12:00:25;;;;;;;;;;;27.30;93.00;;;;;;5025032;28;19918;-59
2022/09/12 12:02:54;;;;;;;;;;;27.30;93.00;;;;;;5024717;28;19915;-57
2022/09/12 12:05:27;;;;;;;;;;;27.30;93.10;;;;;;5024969;28;19918;-61
2022/09/12 12:07:55;;;;;;;;;;;27.20;93.20;;;;;;5025204;28;19909;-59
2022/09/12 12:10:32;;;;;;;;;;;27.20;93.30;;;;;;5024825;28;20217;-59
2022/09/12 12:13:00;;;;;;;;;;;27.30;93.30;;;;;;5024819;28;19968;-60
2022/09/12 12:15:27;;;;;;;;;;;27.20;93.30;;;;;;5025218;28;19992;-58
2022/09/12 12:18:14;;;;;;;;;;;27.20;93.40;;;;;;5025124;28;19923;-59
2022/09/12 12:20:41;;;;;;;;;;;27.30;93.50;;;;;;5023683;28;19913;-58
2022/09/12 12:23:22;;;;;;;;;;;27.30;93.50;;;;;;5022079;28;19956;-59
2022/09/12 12:25:55;;;;;;;;;;;27.20;93.50;;;;;;5021927;28;19917;-59
2022/09/12 12:28:40;;;;;;;;;;;27.30;93.60;;;;;;5022786;28;20001;-59
2022/09/12 12:31:06;;;;;;;;;;;27.30;93.60;;;;;;5023361;28;19999;-59
2022/09/12 12:33:32;;;;;;;;;;;27.30;93.50;;;;;;5023710;28;19917;-59
2022/09/12 12:35:58;;;;;;;;;;;27.30;93.50;;;;;;5024891;28;19917;-58
2022/09/12 12:38:32;;;;;;;;;;;27.30;93.60;;;;;;5024842;28;19909;-59
2022/09/12 12:41:16;;;;;;;;;;;27.30;93.40;;;;;;5024757;28;19944;-59
2022/09/12 12:43:43;;;;;;;;;;;27.30;93.30;;;;;;5024637;28;19932;-58
2022/09/12 12:46:13;;;;;;;;;;;27.30;93.40;;;;;;5024651;28;19913;-61
2022/09/12 12:49:06;;;;;;;;;;;27.30;93.30;;;;;;5024559;28;19909;-58
2022/09/12 12:51:34;;;;;;;;;;;27.30;93.20;;;;;;5008992;28;19976;-60
2022/09/12 12:54:02;;;;;;;;;;;27.30;93.20;;;;;;5024981;28;19909;-60
2022/09/12 12:56:33;;;;;;;;;;;27.40;93.30;;;;;;5024341;28;19918;-59
2022/09/12 12:59:01;;;;;;;;;;;27.40;93.40;;;;;;5024455;28;19910;-57
2022/09/12 13:01:28;;;;;;;;;;;27.40;93.40;;;;;;5025942;28;20203;-59
2022/09/12 13:03:54;;;;;;;;;;;27.40;93.40;;;;;;5028272;28;20109;-58
2022/09/12 13:06:30;;;;;;;;;;;27.40;93.40;;;;;;5028666;28;20078;-58
2022/09/12 13:08:59;;;;;;;;;;;27.40;93.50;;;;;;5028399;28;19980;-59
2022/09/12 13:11:37;;;;;;;;;;;27.40;93.30;;;;;;5028685;28;19977;-56
2022/09/12 13:14:05;;;;;;;;;;;27.40;93.30;;;;;;5028236;28;19968;-58
2022/09/12 13:16:53;;;;;;;;;;;27.40;93.50;;;;;;5027923;28;19919;-54
2022/09/12 13:19:25;;;;;;;;;;;27.50;93.50;;;;;;5028359;28;19909;-58
2022/09/12 13:21:55;;;;;;;;;;;27.50;93.50;;;;;;5028374;28;20178;-60
2022/09/12 13:24:22;;;;;;;;;;;27.40;93.30;;;;;;5028318;28;20140;-59
2022/09/12 13:26:48;;;;;;;;;;;27.40;93.40;;;;;;5028306;28;19964;-63
2022/09/12 13:29:19;;;;;;;;;;;27.40;93.30;;;;;;5027780;28;19937;-58
2022/09/12 13:31:47;;;;;;;;;;;27.40;93.30;;;;;;5028398;28;19936;-59
2022/09/12 13:34:33;;;;;;;;;;;27.40;93.10;;;;;;5028018;28;19913;-55
2022/09/12 13:37:14;;;;;;;;;;;27.40;93.20;;;;;;5026778;28;19947;-55
2022/09/12 13:39:49;;;;;;;;;;;27.50;93.20;;;;;;5027792;28;19913;-60
2022/09/12 13:42:37;;;;;;;;;;;27.50;93.30;;;;;;5027961;28;20167;-58
2022/09/12 13:45:09;;;;;;;;;;;27.50;93.10;;;;;;5027810;28;19913;-61
2022/09/12 13:47:37;;;;;;;;;;;27.40;93.10;;;;;;5028006;28;19944;-64
2022/09/12 13:50:06;;;;;;;;;;;27.50;93.10;;;;;;5027822;28;19915;-58
2022/09/12 13:52:33;;;;;;;;;;;27.50;92.90;;;;;;5027859;28;19932;-58
2022/09/12 13:55:00;;;;;;;;;;;27.50;92.70;;;;;;5027734;28;19909;-59
2022/09/12 13:57:41;;;;;;;;;;;27.60;92.70;;;;;;5027783;28;19917;-57
2022/09/12 14:00:19;;;;;;;;;;;27.60;92.80;;;;;;5027758;28;19913;-61
2022/09/12 14:02:48;;;;;;;;;;;27.60;92.40;;;;;;5027654;28;19914;-59
2022/09/12 14:05:18;;;;;;;;;;;27.60;92.60;;;;;;5027313;28;19947;-57
2022/09/12 14:07:51;;;;;;;;;;;27.70;92.60;;;;;;5027494;28;20205;-59
2022/09/12 14:10:23;;;;;;;;;;;27.80;92.60;;;;;;5027098;28;19932;-55
2022/09/12 14:12:50;;;;;;;;;;;27.80;92.70;;;;;;5026730;28;19953;-59
2022/09/12 14:15:24;;;;;;;;;;;27.80;92.20;;;;;;5027082;28;19913;-59
2022/09/12 14:17:52;;;;;;;;;;;27.80;92.40;;;;;;5027173;28;19948;-57
2022/09/12 14:20:19;;;;;;;;;;;27.90;92.10;;;;;;5027084;28;19910;-52
2022/09/12 14:22:46;;;;;;;;;;;27.90;92.10;;;;;;5027219;28;19910;-60
2022/09/12 14:25:16;;;;;;;;;;;28.00;92.20;;;;;;5027129;28;19920;-58
2022/09/12 14:27:46;;;;;;;;;;;28.00;92.20;;;;;;5027024;28;19914;-59
2022/09/12 14:30:21;;;;;;;;;;;28.00;92.30;;;;;;5026666;28;20086;-59
2022/09/12 14:33:06;;;;;;;;;;;28.10;92.10;;;;;;5027119;28;19956;-60
2022/09/12 14:35:32;;;;;;;;;;;28.10;92.10;;;;;;5026539;28;19940;-59
2022/09/12 14:38:05;;;;;;;;;;;28.10;92.20;;;;;;5026625;28;19914;-61